Time;durP1;ratioP1;P1;durP2;ratioP2;P2;SDS_P1;SDS_P2;PMS_P1;PMS_P2;Temp;Humidity;BMP_temperature;BMP_pressure;BME280_temperature;BME280_humidity;BME280_pressure;Samples;Min_cycle;Max_cycle;Signal;HPM_P1;HPM_P2
2022/12/08 00:00:48;;;;;;;13.40;7.25;;;0.90;99.90;;;;;;5063416;28;20480;-75
2022/12/08 00:03:14;;;;;;;12.18;6.90;;;1.00;99.90;;;;;;5063505;28;20035;-75
2022/12/08 00:11:18;;;;;;;12.63;7.38;;;1.00;99.90;;;;;;5079875;28;20146;-75
2022/12/08 00:13:43;;;;;;;12.70;6.72;;;1.00;99.90;;;;;;5079087;28;20032;-75
2022/12/08 00:16:09;;;;;;;15.20;8.15;;;1.00;99.90;;;;;;5079936;28;20028;-75
2022/12/08 00:18:35;;;;;;;16.40;8.27;;;1.00;99.90;;;;;;5078028;28;20448;-75
2022/12/08 00:21:01;;;;;;;17.42;9.05;;;1.00;99.90;;;;;;5079394;28;20127;-75
2022/12/08 00:23:27;;;;;;;13.65;7.47;;;1.00;99.90;;;;;;5079335;28;20429;-75
2022/12/08 00:25:53;;;;;;;21.88;11.68;;;1.00;99.90;;;;;;5079769;28;20060;-75
2022/12/08 00:28:19;;;;;;;15.93;9.73;;;1.00;99.90;;;;;;5079196;28;20031;-75
2022/12/08 00:30:45;;;;;;;15.63;8.15;;;1.00;99.90;;;;;;5059645;28;20035;-75
2022/12/08 00:33:11;;;;;;;13.50;7.93;;;1.10;99.90;;;;;;5059769;28;20028;-75
2022/12/08 00:35:36;;;;;;;17.20;8.52;;;1.10;99.90;;;;;;5062146;28;20032;-75
2022/12/08 00:38:02;;;;;;;16.20;8.75;;;1.10;99.90;;;;;;5079812;28;20039;-75
2022/12/08 00:40:28;;;;;;;14.90;8.65;;;1.10;99.90;;;;;;5061903;28;20021;-75
2022/12/08 00:42:54;;;;;;;17.27;9.52;;;1.10;99.90;;;;;;5079450;28;20461;-75
2022/12/08 00:45:19;;;;;;;17.77;8.55;;;1.10;99.90;;;;;;5061690;28;20033;-75
2022/12/08 00:47:45;;;;;;;15.27;8.50;;;1.10;99.90;;;;;;5062051;28;20021;-75
2022/12/08 00:50:11;;;;;;;13.60;7.88;;;1.10;99.90;;;;;;5079797;28;20025;-75
2022/12/08 00:52:36;;;;;;;13.85;7.53;;;1.40;99.90;;;;;;5061523;28;20115;-75
2022/12/08 00:55:03;;;;;;;14.10;7.70;;;1.20;99.90;;;;;;5061566;28;20211;-75
2022/12/08 00:57:29;;;;;;;12.65;6.95;;;1.20;99.90;;;;;;5062270;28;20040;-75
2022/12/08 00:59:55;;;;;;;13.30;6.97;;;1.20;99.90;;;;;;5060825;28;20078;-75
2022/12/08 01:02:20;;;;;;;11.70;7.10;;;1.40;99.90;;;;;;5080127;28;20028;-75
2022/12/08 01:04:46;;;;;;;12.77;6.25;;;1.20;99.90;;;;;;5061809;28;20028;-75
2022/12/08 01:07:11;;;;;;;10.27;6.03;;;1.30;99.90;;;;;;5062615;28;20044;-75
2022/12/08 01:09:37;;;;;;;12.57;6.65;;;1.30;99.90;;;;;;5060590;28;20024;-75
2022/12/08 01:12:03;;;;;;;17.42;7.90;;;1.40;99.90;;;;;;5060856;28;20028;-75
2022/12/08 01:14:29;;;;;;;12.48;7.00;;;1.30;99.90;;;;;;5061910;28;20033;-75
2022/12/08 01:16:55;;;;;;;12.73;6.45;;;1.40;99.90;;;;;;5080010;28;20058;-75
2022/12/08 01:19:20;;;;;;;9.98;6.32;;;1.40;99.90;;;;;;5082424;28;20025;-75
2022/12/08 01:21:46;;;;;;;15.13;6.13;;;1.40;99.90;;;;;;5066014;28;20029;-75
2022/12/08 01:24:18;;;;;;;8.98;5.32;;;1.40;99.90;;;;;;5062198;28;20028;-75
2022/12/08 01:26:44;;;;;;;14.52;5.78;;;1.40;99.90;;;;;;5081327;28;20536;-75
2022/12/08 01:29:10;;;;;;;8.60;5.65;;;1.50;99.90;;;;;;5082813;28;20031;-75
2022/12/08 01:31:36;;;;;;;10.50;5.93;;;1.40;99.90;;;;;;5067657;28;20028;-75
2022/12/08 01:34:01;;;;;;;12.38;6.00;;;1.50;99.90;;;;;;5083422;28;20035;-75
2022/12/08 01:36:32;;;;;;;9.27;5.72;;;1.50;99.90;;;;;;5081650;28;20029;-75
2022/12/08 01:39:00;;;;;;;15.75;6.22;;;1.40;99.90;;;;;;5064533;28;20031;-75
2022/12/08 01:41:29;;;;;;;8.45;4.88;;;1.40;99.90;;;;;;5081838;28;20024;-75
2022/12/08 01:44:06;;;;;;;8.60;5.22;;;1.50;99.90;;;;;;5081218;28;20025;-75
2022/12/08 01:46:34;;;;;;;9.85;5.13;;;1.50;99.90;;;;;;5062620;28;20078;-74
2022/12/08 01:49:17;;;;;;;10.20;5.10;;;1.50;99.90;;;;;;5081804;28;20029;-75
2022/12/08 01:51:56;;;;;;;10.77;5.65;;;1.50;99.90;;;;;;5062112;28;20029;-75
2022/12/08 01:54:24;;;;;;;10.02;5.65;;;1.60;99.90;;;;;;5062501;28;20025;-75
2022/12/08 01:57:19;;;;;;;12.88;5.68;;;1.60;99.90;;;;;;5061545;28;20431;-75
2022/12/08 01:59:49;;;;;;;13.23;5.55;;;1.50;99.90;;;;;;5079259;28;20048;-74
2022/12/08 02:02:15;;;;;;;9.95;5.07;;;1.50;99.90;;;;;;5077401;28;20024;-75
2022/12/08 02:04:40;;;;;;;9.32;5.55;;;1.50;99.90;;;;;;5078745;28;20020;-75
2022/12/08 02:07:08;;;;;;;11.27;5.72;;;1.50;99.90;;;;;;5079063;28;20056;-75
2022/12/08 02:09:37;;;;;;;9.45;5.15;;;1.60;99.90;;;;;;5079165;28;20020;-75
2022/12/08 02:12:03;;;;;;;6.13;3.47;;;1.70;99.90;;;;;;5062334;28;20047;-74
2022/12/08 02:14:29;;;;;;;9.38;5.75;;;1.60;99.90;;;;;;5082956;28;20487;-75
2022/12/08 02:17:12;;;;;;;8.32;4.60;;;1.60;99.90;;;;;;5065142;28;20029;-75
2022/12/08 02:20:05;;;;;;;10.02;5.03;;;1.70;99.90;;;;;;5065389;28;20028;-74
2022/12/08 02:23:06;;;;;;;7.20;4.82;;;1.60;99.90;;;;;;5082208;28;20381;-75
2022/12/08 02:25:59;;;;;;;10.77;4.68;;;1.60;99.90;;;;;;5064077;28;20029;-75
2022/12/08 02:28:24;;;;;;;8.23;4.68;;;1.70;99.90;;;;;;5081840;28;20031;-75
2022/12/08 02:31:35;;;;;;;8.48;4.65;;;1.70;99.90;;;;;;5081209;28;20025;-74
2022/12/08 02:34:22;;;;;;;8.00;4.57;;;1.70;99.90;;;;;;5064759;28;20029;-75
2022/12/08 02:37:01;;;;;;;8.60;4.97;;;1.70;99.90;;;;;;5064745;28;20385;-75
2022/12/08 02:39:51;;;;;;;9.45;5.82;;;1.70;99.90;;;;;;5081898;28;20021;-74
2022/12/08 02:42:41;;;;;;;7.60;4.03;;;1.70;99.90;;;;;;5082319;28;20039;-75
2022/12/08 02:45:20;;;;;;;7.88;4.30;;;1.70;99.90;;;;;;5081497;28;20048;-74
2022/12/08 02:47:46;;;;;;;7.32;4.38;;;1.70;99.90;;;;;;5080928;28;20031;-74
2022/12/08 02:50:12;;;;;;;8.18;4.13;;;1.80;99.90;;;;;;5065153;28;20028;-75
2022/12/08 02:52:43;;;;;;;10.02;4.95;;;1.80;99.90;;;;;;5082190;28;20024;-75
2022/12/08 02:55:20;;;;;;;7.70;4.55;;;1.90;99.90;;;;;;5082594;28;20024;-75
2022/12/08 02:58:24;;;;;;;8.40;4.30;;;1.90;99.90;;;;;;5082204;28;20101;-75
2022/12/08 03:01:17;;;;;;;8.40;4.40;;;1.90;99.90;;;;;;5065354;28;20090;-75
2022/12/08 03:03:46;;;;;;;8.68;4.45;;;1.90;99.90;;;;;;5064285;28;20111;-75
2022/12/08 03:06:23;;;;;;;7.43;4.53;;;1.90;99.90;;;;;;5087277;28;20040;-75
2022/12/08 03:08:55;;;;;;;8.57;4.43;;;1.90;99.90;;;;;;5071803;28;20032;-75
2022/12/08 03:11:37;;;;;;;9.15;4.47;;;1.90;99.90;;;;;;5072093;28;20032;-75
2022/12/08 03:14:05;;;;;;;11.02;4.70;;;1.90;99.90;;;;;;5088520;28;20113;-75
2022/12/08 03:16:35;;;;;;;6.80;4.38;;;1.80;99.90;;;;;;5089860;28;20035;-75
2022/12/08 03:19:12;;;;;;;9.18;4.60;;;1.80;99.90;;;;;;5089909;28;20035;-75
2022/12/08 03:21:39;;;;;;;7.70;4.72;;;1.80;99.90;;;;;;5071545;28;20021;-75
2022/12/08 03:24:06;;;;;;;6.10;4.35;;;1.90;99.90;;;;;;5087485;28;20040;-75
2022/12/08 03:26:57;;;;;;;8.48;4.40;;;1.90;99.90;;;;;;5070593;28;20024;-75
2022/12/08 03:29:23;;;;;;;7.57;4.35;;;1.80;99.90;;;;;;5077116;28;20072;-75
2022/12/08 03:32:05;;;;;;;6.88;4.70;;;1.90;99.90;;;;;;5089160;28;20024;-75
2022/12/08 03:34:31;;;;;;;5.93;4.32;;;1.80;99.90;;;;;;5072090;28;20033;-75
2022/12/08 03:37:00;;;;;;;6.25;4.03;;;1.80;99.90;;;;;;5090502;28;20056;-75
2022/12/08 03:39:25;;;;;;;7.25;3.85;;;1.80;99.90;;;;;;5089880;28;20051;-75
2022/12/08 03:41:51;;;;;;;5.65;3.72;;;1.80;99.90;;;;;;5070839;28;20032;-75
2022/12/08 03:44:17;;;;;;;7.28;3.67;;;1.80;99.90;;;;;;5088259;28;20028;-75
2022/12/08 03:46:42;;;;;;;5.97;3.53;;;1.80;99.90;;;;;;5088012;28;20021;-74
2022/12/08 03:49:08;;;;;;;6.32;4.20;;;1.80;99.90;;;;;;5087674;28;20029;-75
2022/12/08 03:51:34;;;;;;;11.02;5.15;;;1.80;99.90;;;;;;5085246;28;20024;-75
2022/12/08 03:53:59;;;;;;;6.53;3.80;;;1.90;99.90;;;;;;5086186;28;20056;-75
2022/12/08 03:56:29;;;;;;;7.60;3.80;;;1.80;99.90;;;;;;5068393;28;20036;-75
2022/12/08 03:58:55;;;;;;;6.43;4.70;;;1.80;99.90;;;;;;5068431;28;20103;-75
2022/12/08 04:01:21;;;;;;;7.18;4.85;;;1.80;99.90;;;;;;5065258;28;20127;-74
2022/12/08 04:03:47;;;;;;;8.60;4.30;;;1.90;99.90;;;;;;5083064;28;20073;-75
2022/12/08 04:06:14;;;;;;;7.97;4.47;;;1.80;99.90;;;;;;5083664;28;20083;-74
2022/12/08 04:08:40;;;;;;;8.45;4.82;;;1.80;99.90;;;;;;5063820;28;20027;-75
2022/12/08 04:11:06;;;;;;;7.20;4.50;;;1.80;99.90;;;;;;5081642;28;20059;-74
2022/12/08 04:13:36;;;;;;;9.93;4.68;;;1.80;99.90;;;;;;5061551;28;20376;-75
2022/12/08 04:16:03;;;;;;;8.38;4.60;;;1.80;99.90;;;;;;5079368;28;20025;-75
2022/12/08 04:18:30;;;;;;;6.53;4.13;;;1.80;99.90;;;;;;5062110;28;20047;-75
2022/12/08 04:20:55;;;;;;;8.60;4.75;;;1.80;99.90;;;;;;5062328;28;20078;-74
2022/12/08 04:23:21;;;;;;;7.40;4.15;;;1.80;99.90;;;;;;5062392;28;20020;-74
2022/12/08 04:25:47;;;;;;;8.00;4.38;;;1.90;99.90;;;;;;5062458;28;20033;-75
2022/12/08 04:28:13;;;;;;;7.45;3.83;;;1.80;99.90;;;;;;5080267;28;20033;-74
2022/12/08 04:30:38;;;;;;;6.20;4.00;;;1.80;99.90;;;;;;5079863;28;20055;-75
2022/12/08 04:33:05;;;;;;;7.18;4.55;;;1.80;99.90;;;;;;5062650;28;20060;-75
2022/12/08 04:35:30;;;;;;;6.78;4.13;;;1.80;99.90;;;;;;5063499;28;20025;-75
2022/12/08 04:37:56;;;;;;;6.13;3.88;;;1.80;99.90;;;;;;5063561;28;20029;-75
2022/12/08 04:40:22;;;;;;;7.13;4.22;;;1.80;99.90;;;;;;5079941;28;20525;-75
2022/12/08 04:42:48;;;;;;;5.78;3.70;;;1.80;99.90;;;;;;5061775;28;20024;-75
2022/12/08 04:45:14;;;;;;;5.90;4.32;;;1.80;99.90;;;;;;5079963;28;20031;-75
2022/12/08 04:47:39;;;;;;;6.20;3.92;;;2.00;99.90;;;;;;5080033;28;20068;-75
2022/12/08 04:50:06;;;;;;;8.60;4.53;;;1.90;99.90;;;;;;5079935;28;20028;-75
2022/12/08 04:52:32;;;;;;;5.95;3.97;;;1.80;99.90;;;;;;5079721;28;20033;-75
2022/12/08 04:54:57;;;;;;;8.95;3.85;;;1.80;99.90;;;;;;5061325;28;20075;-74
2022/12/08 04:57:23;;;;;;;7.60;3.90;;;1.80;99.90;;;;;;5078739;28;20081;-75
2022/12/08 04:59:48;;;;;;;5.97;4.10;;;1.80;99.90;;;;;;5078588;28;20029;-75
2022/12/08 05:02:14;;;;;;;7.80;4.70;;;1.70;99.90;;;;;;5078387;28;20024;-75
2022/12/08 05:04:40;;;;;;;9.40;4.45;;;1.80;99.90;;;;;;5061259;28;20035;-75
2022/12/08 05:07:06;;;;;;;8.95;4.70;;;1.80;99.90;;;;;;5060856;28;20040;-75
2022/12/08 05:09:31;;;;;;;7.68;3.78;;;1.80;99.90;;;;;;5062486;28;20031;-75
2022/12/08 05:11:57;;;;;;;6.13;3.95;;;1.80;99.90;;;;;;5062408;28;20403;-75
2022/12/08 05:14:22;;;;;;;9.10;4.30;;;1.70;99.90;;;;;;5060516;28;20108;-75
2022/12/08 05:16:48;;;;;;;5.75;4.10;;;1.80;99.90;;;;;;5078234;28;20071;-75
2022/12/08 05:19:14;;;;;;;6.18;4.03;;;1.70;99.90;;;;;;5061290;28;20021;-75
2022/12/08 05:21:40;;;;;;;7.10;3.83;;;1.70;99.90;;;;;;5082765;28;20035;-75
2022/12/08 05:24:06;;;;;;;7.80;4.22;;;1.70;99.90;;;;;;5064145;28;20028;-75
2022/12/08 05:26:31;;;;;;;7.80;4.22;;;1.70;99.90;;;;;;5063877;28;20036;-75
2022/12/08 05:28:57;;;;;;;8.88;4.40;;;1.70;99.90;;;;;;5080515;28;20020;-74
2022/12/08 05:31:23;;;;;;;6.70;4.10;;;1.70;99.90;;;;;;5062893;28;20039;-74
2022/12/08 05:33:50;;;;;;;8.57;4.20;;;1.70;99.90;;;;;;5060044;28;20028;-75
2022/12/08 05:36:17;;;;;;;5.43;3.70;;;1.70;99.90;;;;;;5060037;28;20494;-75
2022/12/08 05:38:43;;;;;;;6.20;3.70;;;1.70;99.90;;;;;;5078918;28;20024;-75
2022/12/08 05:41:14;;;;;;;5.30;3.35;;;1.80;99.90;;;;;;5080247;28;20020;-75
2022/12/08 05:43:39;;;;;;;6.03;4.20;;;1.70;99.90;;;;;;5080163;28;20027;-75
2022/12/08 05:46:06;;;;;;;10.10;3.38;;;1.80;99.90;;;;;;5063843;28;20028;-75
2022/12/08 05:48:32;;;;;;;5.38;3.53;;;1.80;99.90;;;;;;5079871;28;20043;-75
2022/12/08 05:50:58;;;;;;;6.70;3.75;;;1.80;99.90;;;;;;5079645;28;20039;-75
2022/12/08 05:53:24;;;;;;;9.63;3.30;;;1.80;99.90;;;;;;5060226;28;20021;-75
2022/12/08 05:55:49;;;;;;;8.68;3.60;;;1.80;99.90;;;;;;5060118;28;20026;-75
2022/12/08 05:58:18;;;;;;;7.13;3.47;;;1.80;99.90;;;;;;5078204;28;20028;-75
2022/12/08 06:00:45;;;;;;;4.68;3.17;;;1.80;99.90;;;;;;5079577;28;20593;-77
2022/12/08 06:03:12;;;;;;;9.45;4.30;;;1.80;99.90;;;;;;5077783;28;20055;-73
2022/12/08 06:05:39;;;;;;;7.65;3.78;;;1.80;99.90;;;;;;5078823;28;20032;-73
2022/12/08 06:08:05;;;;;;;6.38;3.45;;;2.20;99.90;;;;;;5082090;28;20472;-74
2022/12/08 06:10:30;;;;;;;6.43;3.35;;;1.80;99.90;;;;;;5065841;28;20035;-74
2022/12/08 06:12:56;;;;;;;5.60;3.40;;;1.80;99.90;;;;;;5082554;28;20024;-74
2022/12/08 06:15:23;;;;;;;6.43;3.53;;;1.90;99.90;;;;;;5049133;28;20454;-74
2022/12/08 06:17:48;;;;;;;4.82;3.60;;;1.90;99.90;;;;;;5085185;28;20025;-73
2022/12/08 06:20:14;;;;;;;8.23;4.18;;;1.80;99.90;;;;;;5066734;28;20025;-74
2022/12/08 06:22:39;;;;;;;6.25;4.00;;;1.80;99.90;;;;;;5066342;28;20024;-73
2022/12/08 06:25:05;;;;;;;7.50;4.07;;;1.80;99.90;;;;;;5082632;28;20028;-74
2022/12/08 06:27:32;;;;;;;8.38;4.20;;;1.80;99.90;;;;;;5063322;28;20082;-73
2022/12/08 06:29:58;;;;;;;9.35;4.47;;;1.80;99.90;;;;;;5080660;28;20078;-74
2022/12/08 06:32:24;;;;;;;5.28;3.85;;;1.80;99.90;;;;;;5081497;28;20029;-73
2022/12/08 06:34:50;;;;;;;12.52;4.35;;;1.80;99.90;;;;;;5080729;28;20032;-74
2022/12/08 06:37:15;;;;;;;5.22;3.42;;;1.80;99.90;;;;;;5079990;28;20025;-73
2022/12/08 06:39:41;;;;;;;6.18;3.88;;;1.80;99.90;;;;;;5063268;28;20487;-75
2022/12/08 06:44:51;;;;;;;7.93;4.25;;;1.80;99.90;;;;;;5080593;28;20035;-74
2022/12/08 06:47:17;;;;;;;11.40;4.28;;;1.80;99.90;;;;;;5062864;28;20380;-74
2022/12/08 06:49:42;;;;;;;6.05;4.15;;;1.80;99.90;;;;;;5062891;28;20024;-74
2022/12/08 06:52:08;;;;;;;9.10;4.40;;;1.80;99.90;;;;;;5062595;28;20024;-73
2022/12/08 06:54:35;;;;;;;7.18;4.47;;;1.80;99.90;;;;;;5079836;28;20036;-73
2022/12/08 06:57:01;;;;;;;6.22;4.05;;;1.80;99.90;;;;;;5079645;28;20024;-73
2022/12/08 06:59:27;;;;;;;7.75;4.35;;;1.90;99.90;;;;;;5082766;28;20457;-73
2022/12/08 07:01:52;;;;;;;6.65;4.28;;;1.90;99.90;;;;;;5084100;28;20193;-73
2022/12/08 07:04:18;;;;;;;8.70;4.63;;;1.90;99.90;;;;;;5064936;28;20032;-72
2022/12/08 07:06:43;;;;;;;10.60;4.40;;;2.00;99.90;;;;;;5083887;28;20076;-75
2022/12/08 07:09:09;;;;;;;9.88;5.40;;;2.10;99.90;;;;;;5083143;28;20039;-75
2022/12/08 07:11:37;;;;;;;10.10;5.20;;;2.10;99.90;;;;;;5065952;28;20032;-75
2022/12/08 07:14:03;;;;;;;8.68;5.15;;;2.20;99.90;;;;;;5065857;28;20063;-74
2022/12/08 07:16:29;;;;;;;8.00;5.13;;;2.20;99.90;;;;;;5083029;28;20021;-75
2022/12/08 07:18:54;;;;;;;10.88;5.70;;;2.20;99.90;;;;;;5065232;28;20388;-74
2022/12/08 07:21:20;;;;;;;8.77;5.68;;;2.20;99.90;;;;;;5067922;28;20111;-73
2022/12/08 07:23:47;;;;;;;9.55;5.38;;;2.30;99.90;;;;;;5086906;28;20027;-73
2022/12/08 07:26:13;;;;;;;8.23;4.95;;;2.30;99.90;;;;;;5071369;28;20064;-73
2022/12/08 07:28:40;;;;;;;9.57;5.07;;;2.40;99.90;;;;;;5071659;28;20036;-73
2022/12/08 07:31:07;;;;;;;8.35;5.35;;;2.50;99.90;;;;;;5085855;28;20021;-76
2022/12/08 07:33:34;;;;;;;13.45;5.53;;;2.60;99.90;;;;;;5085273;28;20052;-74
2022/12/08 07:36:03;;;;;;;10.55;6.13;;;2.60;99.90;;;;;;5085057;28;20111;-74
2022/12/08 07:38:28;;;;;;;10.43;6.00;;;2.70;99.90;;;;;;5084974;28;20031;-73
2022/12/08 07:40:54;;;;;;;10.68;6.32;;;2.80;99.90;;;;;;5066610;28;20028;-73
2022/12/08 07:43:21;;;;;;;10.55;6.20;;;2.90;99.90;;;;;;5083860;28;20031;-73
2022/12/08 07:45:48;;;;;;;10.48;5.97;;;3.00;99.90;;;;;;5083866;28;20036;-73
2022/12/08 07:48:13;;;;;;;12.07;7.03;;;3.10;99.90;;;;;;5066173;28;20124;-73
2022/12/08 07:50:39;;;;;;;14.00;6.95;;;3.20;99.90;;;;;;5082535;28;20060;-63
2022/12/08 07:53:05;;;;;;;15.85;7.03;;;3.30;99.90;;;;;;5076141;28;20036;-62
2022/12/08 07:55:31;;;;;;;11.77;7.03;;;3.30;99.90;;;;;;5059144;28;20144;-71
2022/12/08 07:57:57;;;;;;;13.10;6.95;;;3.40;99.90;;;;;;5062703;28;20020;-74
2022/12/08 08:00:23;;;;;;;13.90;7.65;;;3.50;99.90;;;;;;5080611;28;20043;-77
2022/12/08 08:02:49;;;;;;;13.68;7.50;;;3.60;99.90;;;;;;5061488;28;20422;-73
2022/12/08 08:05:14;;;;;;;11.25;6.45;;;3.70;99.90;;;;;;5062559;28;20024;-74
2022/12/08 08:07:42;;;;;;;12.43;7.38;;;3.90;99.90;;;;;;5059866;28;20484;-74
2022/12/08 08:10:09;;;;;;;15.80;8.30;;;4.10;99.90;;;;;;5077416;28;20021;-77
2022/12/08 08:12:35;;;;;;;10.10;6.72;;;4.40;99.90;;;;;;5079961;28;20020;-73
2022/12/08 08:15:02;;;;;;;12.55;7.88;;;4.70;99.90;;;;;;5079936;28;20086;-73
2022/12/08 08:17:28;;;;;;;11.35;7.25;;;5.10;99.90;;;;;;5062150;28;20036;-74
2022/12/08 08:19:54;;;;;;;16.58;7.38;;;5.60;99.90;;;;;;5061351;28;20025;-73
2022/12/08 08:22:19;;;;;;;12.32;7.13;;;6.00;99.90;;;;;;5059945;28;20384;-73
2022/12/08 08:24:45;;;;;;;11.13;6.28;;;6.60;99.90;;;;;;5057852;28;20032;-73
2022/12/08 08:27:11;;;;;;;10.10;6.40;;;7.10;99.90;;;;;;5058383;28;20029;-77
2022/12/08 08:29:36;;;;;;;9.85;6.47;;;7.80;99.90;;;;;;5057976;28;20029;-74
2022/12/08 08:32:02;;;;;;;11.70;6.78;;;8.40;99.90;;;;;;5058842;28;20028;-76
2022/12/08 08:34:28;;;;;;;8.88;5.85;;;9.00;99.90;;;;;;5075756;28;20119;-76
2022/12/08 08:36:53;;;;;;;8.77;6.13;;;9.60;99.90;;;;;;5075102;28;20063;-75
2022/12/08 08:39:19;;;;;;;7.45;5.57;;;10.00;99.90;;;;;;5057133;28;20120;-75
2022/12/08 08:41:44;;;;;;;6.95;5.68;;;10.20;98.50;;;;;;5074809;28;20027;-74
2022/12/08 08:44:13;;;;;;;7.50;5.68;;;10.40;98.00;;;;;;5075262;28;20033;-74
2022/12/08 08:46:39;;;;;;;11.55;6.18;;;10.50;97.30;;;;;;5074614;28;20486;-75
2022/12/08 08:49:04;;;;;;;12.63;6.20;;;10.90;96.30;;;;;;5056997;28;20127;-62
2022/12/08 08:51:30;;;;;;;7.00;5.47;;;11.30;94.20;;;;;;5075100;28;20028;-62
2022/12/08 08:53:56;;;;;;;6.03;5.22;;;11.50;93.00;;;;;;5071423;28;20036;-75
2022/12/08 08:56:23;;;;;;;6.70;5.13;;;11.70;92.20;;;;;;5056896;28;20357;-74
2022/12/08 08:58:51;;;;;;;8.50;5.07;;;11.40;91.70;;;;;;5082469;28;20062;-74
2022/12/08 09:01:22;;;;;;;9.82;5.80;;;11.10;92.50;;;;;;5094814;28;20027;-74
2022/12/08 09:03:48;;;;;;;10.02;6.05;;;11.10;92.20;;;;;;5076575;28;20101;-78
2022/12/08 09:06:14;;;;;;;8.80;6.20;;;10.70;92.90;;;;;;5076123;28;20400;-73
2022/12/08 09:08:40;;;;;;;8.30;5.63;;;10.20;93.80;;;;;;5076506;28;20494;-73
2022/12/08 09:11:08;;;;;;;8.82;5.22;;;10.30;95.20;;;;;;5085865;28;20070;-73
2022/12/08 09:13:34;;;;;;;8.68;5.82;;;9.40;96.10;;;;;;5074953;28;20020;-76
2022/12/08 09:16:01;;;;;;;9.20;5.82;;;9.40;97.00;;;;;;5075135;28;20041;-76
2022/12/08 09:18:28;;;;;;;8.63;5.25;;;9.30;97.50;;;;;;5057551;28;20025;-74
2022/12/08 09:20:55;;;;;;;8.25;5.65;;;9.00;98.00;;;;;;5056224;28;20036;-72
2022/12/08 09:23:21;;;;;;;10.70;5.47;;;8.70;98.90;;;;;;5057347;28;20371;-77
2022/12/08 09:25:47;;;;;;;7.13;5.55;;;8.50;99.90;;;;;;5074957;28;20051;-74
2022/12/08 09:28:13;;;;;;;9.10;6.25;;;8.10;99.90;;;;;;5075299;28;20021;-75
2022/12/08 09:30:41;;;;;;;7.13;5.18;;;7.80;99.90;;;;;;5057274;28;20029;-77
2022/12/08 09:33:06;;;;;;;7.80;5.35;;;7.40;99.90;;;;;;5076615;28;20020;-71
2022/12/08 09:35:32;;;;;;;9.95;6.45;;;7.20;99.90;;;;;;5058440;28;20033;-72
2022/12/08 09:37:58;;;;;;;8.30;5.40;;;7.10;99.90;;;;;;5058874;28;20510;-74
2022/12/08 09:40:25;;;;;;;7.70;5.43;;;7.00;99.90;;;;;;5077604;28;20040;-75
2022/12/08 09:42:56;;;;;;;8.40;5.65;;;6.90;99.90;;;;;;5062994;28;20036;-75
2022/12/08 09:45:26;;;;;;;9.30;5.75;;;6.90;99.90;;;;;;5062282;28;20107;-71
2022/12/08 09:48:02;;;;;;;8.27;5.70;;;6.80;99.90;;;;;;5090445;28;20024;-69
2022/12/08 09:50:38;;;;;;;10.98;5.75;;;6.80;99.90;;;;;;5080314;28;20024;-73
2022/12/08 09:53:04;;;;;;;7.57;5.40;;;6.70;99.90;;;;;;5078914;28;20392;-68
2022/12/08 09:55:55;;;;;;;11.23;6.72;;;6.70;99.90;;;;;;5076974;28;20028;-68
2022/12/08 09:58:34;;;;;;;8.60;5.88;;;6.60;99.90;;;;;;5082464;28;20032;-68
2022/12/08 10:01:00;;;;;;;12.60;5.97;;;6.60;99.90;;;;;;5094353;28;20107;-67
2022/12/08 10:03:28;;;;;;;8.35;5.78;;;6.60;99.90;;;;;;5094122;28;20062;-67
2022/12/08 10:06:06;;;;;;;8.70;6.00;;;6.70;99.90;;;;;;5094200;28;20060;-68
2022/12/08 10:09:13;;;;;;;10.73;6.68;;;6.70;99.90;;;;;;5094489;28;20032;-68
2022/12/08 10:11:41;;;;;;;10.05;6.53;;;6.70;99.90;;;;;;5077295;28;20024;-69
2022/12/08 10:14:40;;;;;;;10.95;6.40;;;6.60;99.90;;;;;;5076373;28;20020;-69
2022/12/08 10:17:14;;;;;;;10.13;6.70;;;6.60;99.90;;;;;;5094612;28;20024;-69
2022/12/08 10:19:41;;;;;;;9.10;5.93;;;6.50;99.90;;;;;;5094860;28;20103;-69
2022/12/08 10:22:21;;;;;;;11.68;7.35;;;6.50;99.90;;;;;;5076376;28;20090;-69
2022/12/08 10:25:02;;;;;;;12.00;6.75;;;6.50;99.90;;;;;;5094326;28;20060;-69
2022/12/08 10:27:28;;;;;;;8.52;5.95;;;6.50;99.90;;;;;;5094428;28;20168;-67
2022/12/08 10:29:54;;;;;;;9.63;5.82;;;6.40;99.90;;;;;;5094115;28;20111;-67
2022/12/08 10:32:27;;;;;;;9.85;6.45;;;6.30;99.90;;;;;;5076052;28;20476;-67
2022/12/08 10:35:20;;;;;;;8.57;6.20;;;6.30;99.90;;;;;;5097519;28;20085;-69
2022/12/08 10:38:01;;;;;;;9.77;5.82;;;6.30;99.90;;;;;;5093159;28;20097;-67
2022/12/08 10:40:29;;;;;;;7.85;5.55;;;6.40;99.90;;;;;;5079990;28;20107;-67
2022/12/08 10:42:58;;;;;;;10.50;6.07;;;6.50;99.90;;;;;;5080180;28;20059;-68
2022/12/08 10:45:27;;;;;;;7.97;5.72;;;6.60;99.90;;;;;;5080428;28;20398;-68
2022/12/08 10:47:58;;;;;;;7.60;4.85;;;6.70;99.90;;;;;;5087788;28;20029;-70
2022/12/08 10:50:40;;;;;;;7.60;5.05;;;6.70;99.90;;;;;;5062788;28;20052;-68
2022/12/08 10:53:08;;;;;;;7.13;4.70;;;6.70;99.90;;;;;;5080920;28;20025;-67
2022/12/08 10:56:01;;;;;;;5.63;4.28;;;6.70;99.90;;;;;;5078817;28;20060;-73
2022/12/08 10:58:42;;;;;;;4.78;3.97;;;6.70;99.90;;;;;;5058903;28;20033;-74
2022/12/08 11:01:26;;;;;;;4.63;4.03;;;6.80;99.90;;;;;;5077392;28;20021;-73
2022/12/08 11:03:58;;;;;;;6.20;4.10;;;6.80;99.90;;;;;;5081437;28;20021;-73
2022/12/08 11:06:35;;;;;;;5.45;3.75;;;6.80;99.90;;;;;;5065272;28;20083;-71
2022/12/08 11:09:23;;;;;;;5.18;3.90;;;6.80;99.90;;;;;;5065362;28;20021;-73
2022/12/08 11:12:08;;;;;;;7.55;4.47;;;6.80;99.90;;;;;;5065336;28;20070;-72
2022/12/08 11:14:46;;;;;;;5.05;3.47;;;6.90;99.90;;;;;;5065124;28;20384;-73
2022/12/08 11:17:21;;;;;;;5.07;3.67;;;6.90;99.90;;;;;;5064807;28;20036;-73
2022/12/08 11:20:00;;;;;;;5.07;3.55;;;7.00;99.90;;;;;;5064515;28;20017;-73
2022/12/08 11:22:36;;;;;;;7.07;3.85;;;7.00;99.90;;;;;;5062860;28;20083;-73
2022/12/08 11:25:10;;;;;;;5.88;4.15;;;7.00;99.90;;;;;;5063462;28;20532;-73
2022/12/08 11:27:39;;;;;;;6.78;3.70;;;6.90;99.90;;;;;;5083573;28;20476;-73
2022/12/08 11:30:18;;;;;;;5.93;4.15;;;6.90;99.90;;;;;;5084186;28;20020;-73
2022/12/08 11:32:47;;;;;;;10.02;4.95;;;6.90;99.90;;;;;;5068613;28;20029;-73
2022/12/08 11:35:29;;;;;;;7.60;4.47;;;6.80;99.90;;;;;;5068672;28;20036;-74
2022/12/08 11:38:03;;;;;;;6.93;5.32;;;6.80;99.90;;;;;;5067417;28;20033;-73
2022/12/08 11:40:35;;;;;;;8.93;5.63;;;6.80;99.90;;;;;;5069441;28;20032;-73
2022/12/08 11:43:28;;;;;;;11.55;6.22;;;6.80;99.90;;;;;;5070874;28;20035;-74
2022/12/08 11:46:19;;;;;;;9.52;6.53;;;6.70;99.90;;;;;;5088891;28;20028;-73
2022/12/08 11:48:45;;;;;;;9.63;6.45;;;6.70;99.90;;;;;;5071081;28;20035;-74
2022/12/08 11:51:28;;;;;;;11.65;6.80;;;6.70;99.90;;;;;;5068987;28;20068;-73
2022/12/08 11:54:10;;;;;;;10.57;7.05;;;6.60;99.90;;;;;;5086915;28;20385;-73
2022/12/08 11:56:39;;;;;;;10.27;6.40;;;6.40;99.90;;;;;;5084802;28;20444;-73
2022/12/08 11:59:27;;;;;;;10.60;6.82;;;6.30;99.90;;;;;;5081838;28;20384;-73
2022/12/08 12:01:53;;;;;;;12.77;7.15;;;6.30;99.90;;;;;;5083083;28;20031;-73
2022/12/08 12:04:40;;;;;;;13.32;7.78;;;6.30;99.90;;;;;;5066494;28;20024;-73
2022/12/08 12:07:31;;;;;;;13.60;7.43;;;6.20;99.90;;;;;;5083023;28;20049;-73
2022/12/08 12:10:40;;;;;;;14.80;7.22;;;6.10;99.90;;;;;;5060263;28;20028;-72
2022/12/08 12:13:06;;;;;;;13.32;7.38;;;6.10;99.90;;;;;;5000462;28;20036;-72
2022/12/08 12:16:00;;;;;;;11.73;7.28;;;6.10;99.90;;;;;;4984077;28;20042;-72
2022/12/08 12:18:49;;;;;;;13.90;7.75;;;6.10;99.90;;;;;;4980072;28;20035;-72
2022/12/08 12:21:26;;;;;;;11.75;7.30;;;6.00;99.90;;;;;;4998831;28;20026;-73
2022/12/08 12:23:54;;;;;;;12.57;7.45;;;6.00;99.90;;;;;;4983697;28;20031;-73
2022/12/08 12:26:26;;;;;;;11.65;7.20;;;6.00;99.90;;;;;;5001081;28;20077;-73
2022/12/08 12:29:14;;;;;;;11.27;7.25;;;6.00;99.90;;;;;;4985461;28;20037;-73
2022/12/08 12:31:46;;;;;;;15.45;8.02;;;6.10;99.90;;;;;;4998285;28;20070;-73
2022/12/08 12:34:47;;;;;;;16.27;7.35;;;6.10;99.90;;;;;;4998932;28;20035;-73
2022/12/08 12:37:17;;;;;;;12.63;8.15;;;6.10;99.90;;;;;;5000305;28;20133;-73
2022/12/08 12:39:48;;;;;;;20.38;9.38;;;6.00;99.90;;;;;;4980352;28;20034;-73
2022/12/08 12:42:32;;;;;;;16.55;9.02;;;5.90;99.90;;;;;;4994516;28;20041;-73
2022/12/08 12:45:16;;;;;;;13.50;7.53;;;5.90;99.90;;;;;;5075883;28;20040;-73
2022/12/08 12:47:55;;;;;;;18.90;9.40;;;5.90;99.90;;;;;;5076218;28;20103;-74
2022/12/08 12:50:33;;;;;;;15.45;8.30;;;5.90;99.90;;;;;;5077271;28;20025;-74
2022/12/08 12:53:19;;;;;;;12.13;7.53;;;5.90;99.90;;;;;;5078149;28;20036;-73
2022/12/08 12:55:44;;;;;;;14.60;7.82;;;6.00;99.90;;;;;;5038405;28;20044;-74
2022/12/08 12:58:28;;;;;;;14.07;9.00;;;6.00;99.90;;;;;;5063940;28;20116;-74
2022/12/08 13:01:09;;;;;;;13.63;8.77;;;6.00;99.90;;;;;;5080608;28;20106;-74
2022/12/08 13:03:42;;;;;;;11.15;7.35;;;6.10;99.90;;;;;;5062123;28;20020;-75
2022/12/08 13:06:12;;;;;;;13.82;7.85;;;6.10;99.90;;;;;;5080779;28;20089;-74
2022/12/08 13:08:53;;;;;;;16.30;8.88;;;6.10;99.90;;;;;;5063170;28;20077;-74
2022/12/08 13:11:19;;;;;;;18.02;9.93;;;6.20;99.90;;;;;;5063574;28;20535;-75
2022/12/08 13:14:03;;;;;;;19.48;10.32;;;6.20;99.90;;;;;;5081727;28;20067;-75
2022/12/08 13:16:38;;;;;;;17.60;10.55;;;6.10;99.90;;;;;;5063251;28;20029;-74
2022/12/08 13:19:10;;;;;;;18.20;10.27;;;6.10;99.90;;;;;;5076571;28;20032;-72